sensor_id;sensor_type;location;lat;lon;timestamp;temperature;humidity
53978;DHT22;39886;47.984;-1.586;2023-03-29T00:00:24;19.10;62.00
53978;DHT22;39886;47.984;-1.586;2023-03-29T00:02:51;19.10;62.10
53978;DHT22;39886;47.984;-1.586;2023-03-29T00:05:18;19.10;62.00
53978;DHT22;39886;47.984;-1.586;2023-03-29T00:07:48;19.10;62.10
53978;DHT22;39886;47.984;-1.586;2023-03-29T00:10:20;19.10;62.00
53978;DHT22;39886;47.984;-1.586;2023-03-29T00:12:49;19.00;62.10
53978;DHT22;39886;47.984;-1.586;2023-03-29T00:15:17;19.10;62.10
53978;DHT22;39886;47.984;-1.586;2023-03-29T00:17:42;19.00;62.00
53978;DHT22;39886;47.984;-1.586;2023-03-29T00:20:09;19.00;62.00
53978;DHT22;39886;47.984;-1.586;2023-03-29T00:22:39;19.00;62.10
53978;DHT22;39886;47.984;-1.586;2023-03-29T00:25:09;19.10;62.20
53978;DHT22;39886;47.984;-1.586;2023-03-29T00:27:36;19.10;62.20
53978;DHT22;39886;47.984;-1.586;2023-03-29T00:30:03;19.10;62.10
53978;DHT22;39886;47.984;-1.586;2023-03-29T00:32:30;19.10;62.20
53978;DHT22;39886;47.984;-1.586;2023-03-29T00:34:57;19.00;62.20
53978;DHT22;39886;47.984;-1.586;2023-03-29T00:37:25;19.00;62.20
53978;DHT22;39886;47.984;-1.586;2023-03-29T00:39:54;19.00;62.20
53978;DHT22;39886;47.984;-1.586;2023-03-29T00:42:21;19.00;62.20
53978;DHT22;39886;47.984;-1.586;2023-03-29T00:49:54;19.10;62.30
53978;DHT22;39886;47.984;-1.586;2023-03-29T00:52:22;19.00;62.30
53978;DHT22;39886;47.984;-1.586;2023-03-29T00:54:51;19.00;62.20
53978;DHT22;39886;47.984;-1.586;2023-03-29T00:57:19;19.00;62.30
53978;DHT22;39886;47.984;-1.586;2023-03-29T00:59:47;19.00;62.20
53978;DHT22;39886;47.984;-1.586;2023-03-29T01:02:15;19.00;62.20
53978;DHT22;39886;47.984;-1.586;2023-03-29T01:05:03;19.00;62.30
53978;DHT22;39886;47.984;-1.586;2023-03-29T01:07:47;19.00;62.20
53978;DHT22;39886;47.984;-1.586;2023-03-29T01:10:24;19.00;62.30
53978;DHT22;39886;47.984;-1.586;2023-03-29T01:12:55;19.00;62.40
53978;DHT22;39886;47.984;-1.586;2023-03-29T01:15:23;19.00;62.40
53978;DHT22;39886;47.984;-1.586;2023-03-29T01:17:51;19.00;62.30
53978;DHT22;39886;47.984;-1.586;2023-03-29T01:23:23;19.00;62.40
53978;DHT22;39886;47.984;-1.586;2023-03-29T01:28:56;19.00;62.30
53978;DHT22;39886;47.984;-1.586;2023-03-29T01:31:29;19.00;62.40
53978;DHT22;39886;47.984;-1.586;2023-03-29T01:34:09;18.90;63.10
53978;DHT22;39886;47.984;-1.586;2023-03-29T01:36:40;19.00;62.50
53978;DHT22;39886;47.984;-1.586;2023-03-29T01:39:07;19.00;62.50
53978;DHT22;39886;47.984;-1.586;2023-03-29T01:41:36;18.90;62.50
53978;DHT22;39886;47.984;-1.586;2023-03-29T01:44:12;18.90;62.50
53978;DHT22;39886;47.984;-1.586;2023-03-29T01:46:46;19.00;62.50
53978;DHT22;39886;47.984;-1.586;2023-03-29T01:49:27;19.00;62.60
53978;DHT22;39886;47.984;-1.586;2023-03-29T01:54:42;19.00;62.50
53978;DHT22;39886;47.984;-1.586;2023-03-29T01:57:09;18.90;62.50
53978;DHT22;39886;47.984;-1.586;2023-03-29T01:59:39;18.90;62.50
53978;DHT22;39886;47.984;-1.586;2023-03-29T02:02:10;18.90;62.50
53978;DHT22;39886;47.984;-1.586;2023-03-29T02:04:39;18.90;62.60
53978;DHT22;39886;47.984;-1.586;2023-03-29T02:07:07;18.90;62.50
53978;DHT22;39886;47.984;-1.586;2023-03-29T02:09:34;18.90;62.60
53978;DHT22;39886;47.984;-1.586;2023-03-29T02:12:02;18.90;62.50
53978;DHT22;39886;47.984;-1.586;2023-03-29T02:14:28;18.90;62.50
53978;DHT22;39886;47.984;-1.586;2023-03-29T02:16:55;18.90;62.60
53978;DHT22;39886;47.984;-1.586;2023-03-29T02:19:21;18.90;62.60
53978;DHT22;39886;47.984;-1.586;2023-03-29T02:21:55;18.90;62.70
53978;DHT22;39886;47.984;-1.586;2023-03-29T02:24:27;18.90;62.50
53978;DHT22;39886;47.984;-1.586;2023-03-29T02:26:57;18.90;62.60
53978;DHT22;39886;47.984;-1.586;2023-03-29T02:29:24;18.90;62.60
53978;DHT22;39886;47.984;-1.586;2023-03-29T02:32:02;18.90;62.70
53978;DHT22;39886;47.984;-1.586;2023-03-29T02:34:50;18.90;62.70
53978;DHT22;39886;47.984;-1.586;2023-03-29T02:37:19;18.90;62.70
53978;DHT22;39886;47.984;-1.586;2023-03-29T02:39:48;18.90;62.70
53978;DHT22;39886;47.984;-1.586;2023-03-29T02:42:16;18.90;62.70
53978;DHT22;39886;47.984;-1.586;2023-03-29T02:44:45;18.90;62.80
53978;DHT22;39886;47.984;-1.586;2023-03-29T02:47:25;18.90;62.70
53978;DHT22;39886;47.984;-1.586;2023-03-29T02:49:53;18.90;62.70
53978;DHT22;39886;47.984;-1.586;2023-03-29T02:52:22;18.90;62.80
53978;DHT22;39886;47.984;-1.586;2023-03-29T02:54:51;18.90;62.80
53978;DHT22;39886;47.984;-1.586;2023-03-29T02:57:20;18.90;62.70
53978;DHT22;39886;47.984;-1.586;2023-03-29T02:59:51;18.90;62.80
53978;DHT22;39886;47.984;-1.586;2023-03-29T03:02:18;18.90;62.80
53978;DHT22;39886;47.984;-1.586;2023-03-29T03:04:44;18.90;62.80
53978;DHT22;39886;47.984;-1.586;2023-03-29T03:07:10;18.80;62.70
53978;DHT22;39886;47.984;-1.586;2023-03-29T03:09:36;18.90;62.90
53978;DHT22;39886;47.984;-1.586;2023-03-29T03:12:02;18.80;62.80
53978;DHT22;39886;47.984;-1.586;2023-03-29T03:14:28;18.90;62.80
53978;DHT22;39886;47.984;-1.586;2023-03-29T03:16:54;18.80;62.80
53978;DHT22;39886;47.984;-1.586;2023-03-29T03:19:20;18.90;62.80
53978;DHT22;39886;47.984;-1.586;2023-03-29T03:21:46;18.90;62.90
53978;DHT22;39886;47.984;-1.586;2023-03-29T03:24:12;18.90;62.90
53978;DHT22;39886;47.984;-1.586;2023-03-29T03:26:38;18.80;62.90
53978;DHT22;39886;47.984;-1.586;2023-03-29T03:29:04;18.80;62.90
53978;DHT22;39886;47.984;-1.586;2023-03-29T03:31:30;18.90;62.90
53978;DHT22;39886;47.984;-1.586;2023-03-29T03:33:57;18.90;62.90
53978;DHT22;39886;47.984;-1.586;2023-03-29T03:36:24;18.90;63.00
53978;DHT22;39886;47.984;-1.586;2023-03-29T03:38:53;18.90;62.90
53978;DHT22;39886;47.984;-1.586;2023-03-29T03:41:19;18.90;62.90
53978;DHT22;39886;47.984;-1.586;2023-03-29T03:43:45;18.90;62.90
53978;DHT22;39886;47.984;-1.586;2023-03-29T03:46:15;18.90;63.00
53978;DHT22;39886;47.984;-1.586;2023-03-29T03:48:41;18.90;63.00
53978;DHT22;39886;47.984;-1.586;2023-03-29T03:51:07;18.90;63.00
53978;DHT22;39886;47.984;-1.586;2023-03-29T03:53:33;18.80;63.00
53978;DHT22;39886;47.984;-1.586;2023-03-29T03:55:59;18.80;62.90
53978;DHT22;39886;47.984;-1.586;2023-03-29T03:58:26;18.80;63.00
53978;DHT22;39886;47.984;-1.586;2023-03-29T04:00:52;18.80;63.00
53978;DHT22;39886;47.984;-1.586;2023-03-29T04:03:19;18.80;63.00
53978;DHT22;39886;47.984;-1.586;2023-03-29T04:05:46;18.80;63.00
53978;DHT22;39886;47.984;-1.586;2023-03-29T04:08:12;18.80;63.00
53978;DHT22;39886;47.984;-1.586;2023-03-29T04:10:38;18.80;63.00
53978;DHT22;39886;47.984;-1.586;2023-03-29T04:13:04;18.80;63.00
53978;DHT22;39886;47.984;-1.586;2023-03-29T04:15:31;18.80;63.10
53978;DHT22;39886;47.984;-1.586;2023-03-29T04:17:58;18.80;63.00
53978;DHT22;39886;47.984;-1.586;2023-03-29T04:20:25;18.80;63.10
53978;DHT22;39886;47.984;-1.586;2023-03-29T04:22:52;18.80;63.10
53978;DHT22;39886;47.984;-1.586;2023-03-29T04:25:18;18.80;63.10
53978;DHT22;39886;47.984;-1.586;2023-03-29T04:27:46;18.80;63.10
53978;DHT22;39886;47.984;-1.586;2023-03-29T04:30:12;18.80;63.10
53978;DHT22;39886;47.984;-1.586;2023-03-29T04:32:37;18.80;63.20
53978;DHT22;39886;47.984;-1.586;2023-03-29T04:35:04;18.80;63.10
53978;DHT22;39886;47.984;-1.586;2023-03-29T04:37:30;18.80;63.10
53978;DHT22;39886;47.984;-1.586;2023-03-29T04:39:57;18.80;63.10
53978;DHT22;39886;47.984;-1.586;2023-03-29T04:42:25;18.80;63.20
53978;DHT22;39886;47.984;-1.586;2023-03-29T04:44:52;18.80;63.10
53978;DHT22;39886;47.984;-1.586;2023-03-29T04:47:19;18.80;63.20
53978;DHT22;39886;47.984;-1.586;2023-03-29T04:49:46;18.80;63.20
53978;DHT22;39886;47.984;-1.586;2023-03-29T04:52:11;18.80;63.20
53978;DHT22;39886;47.984;-1.586;2023-03-29T04:54:38;18.80;63.20
53978;DHT22;39886;47.984;-1.586;2023-03-29T04:57:04;18.80;63.20
53978;DHT22;39886;47.984;-1.586;2023-03-29T04:59:30;18.80;63.20
53978;DHT22;39886;47.984;-1.586;2023-03-29T05:01:57;18.80;63.30
53978;DHT22;39886;47.984;-1.586;2023-03-29T05:04:22;18.80;63.20
53978;DHT22;39886;47.984;-1.586;2023-03-29T05:06:49;18.70;63.90
53978;DHT22;39886;47.984;-1.586;2023-03-29T05:09:15;18.80;63.20
53978;DHT22;39886;47.984;-1.586;2023-03-29T05:11:41;18.80;63.30
53978;DHT22;39886;47.984;-1.586;2023-03-29T05:14:07;18.80;63.20
53978;DHT22;39886;47.984;-1.586;2023-03-29T05:16:34;18.80;63.30
53978;DHT22;39886;47.984;-1.586;2023-03-29T05:19:00;18.80;63.30
53978;DHT22;39886;47.984;-1.586;2023-03-29T05:21:26;18.80;63.20
53978;DHT22;39886;47.984;-1.586;2023-03-29T05:23:53;18.80;63.30
53978;DHT22;39886;47.984;-1.586;2023-03-29T05:26:21;18.90;63.10
53978;DHT22;39886;47.984;-1.586;2023-03-29T05:28:47;19.00;62.80
53978;DHT22;39886;47.984;-1.586;2023-03-29T05:31:13;19.10;62.50
53978;DHT22;39886;47.984;-1.586;2023-03-29T05:33:39;19.20;62.40
53978;DHT22;39886;47.984;-1.586;2023-03-29T05:36:08;19.30;62.20
53978;DHT22;39886;47.984;-1.586;2023-03-29T05:38:35;19.40;62.00
53978;DHT22;39886;47.984;-1.586;2023-03-29T05:41:01;19.50;61.80
53978;DHT22;39886;47.984;-1.586;2023-03-29T05:43:28;19.60;61.50
53978;DHT22;39886;47.984;-1.586;2023-03-29T05:45:54;19.60;61.40
53978;DHT22;39886;47.984;-1.586;2023-03-29T05:48:21;19.70;61.90
53978;DHT22;39886;47.984;-1.586;2023-03-29T05:50:48;19.80;61.10
53978;DHT22;39886;47.984;-1.586;2023-03-29T05:53:18;19.80;61.00
53978;DHT22;39886;47.984;-1.586;2023-03-29T05:55:44;19.80;60.90
53978;DHT22;39886;47.984;-1.586;2023-03-29T05:58:11;19.90;60.90
53978;DHT22;39886;47.984;-1.586;2023-03-29T06:00:41;19.90;60.70
53978;DHT22;39886;47.984;-1.586;2023-03-29T06:03:14;19.90;60.60
53978;DHT22;39886;47.984;-1.586;2023-03-29T06:05:44;20.00;60.60
53978;DHT22;39886;47.984;-1.586;2023-03-29T06:08:11;20.00;60.50
53978;DHT22;39886;47.984;-1.586;2023-03-29T06:10:37;20.10;60.40
53978;DHT22;39886;47.984;-1.586;2023-03-29T06:13:02;20.10;60.40
53978;DHT22;39886;47.984;-1.586;2023-03-29T06:15:28;20.20;60.20
53978;DHT22;39886;47.984;-1.586;2023-03-29T06:17:54;20.20;60.20
53978;DHT22;39886;47.984;-1.586;2023-03-29T06:20:20;20.20;60.10
53978;DHT22;39886;47.984;-1.586;2023-03-29T06:22:46;20.30;60.00
53978;DHT22;39886;47.984;-1.586;2023-03-29T06:25:12;20.30;60.00
53978;DHT22;39886;47.984;-1.586;2023-03-29T06:27:40;20.30;59.90
53978;DHT22;39886;47.984;-1.586;2023-03-29T06:30:06;20.40;59.90
53978;DHT22;39886;47.984;-1.586;2023-03-29T06:32:35;20.40;60.10
53978;DHT22;39886;47.984;-1.586;2023-03-29T06:35:01;20.40;59.80
53978;DHT22;39886;47.984;-1.586;2023-03-29T06:37:27;20.40;59.90
53978;DHT22;39886;47.984;-1.586;2023-03-29T06:39:53;20.50;59.90
53978;DHT22;39886;47.984;-1.586;2023-03-29T06:42:19;20.50;59.70
53978;DHT22;39886;47.984;-1.586;2023-03-29T06:44:45;20.60;59.80
53978;DHT22;39886;47.984;-1.586;2023-03-29T06:47:15;20.60;59.60
53978;DHT22;39886;47.984;-1.586;2023-03-29T06:49:41;20.70;59.50
53978;DHT22;39886;47.984;-1.586;2023-03-29T06:52:07;20.70;59.80
53978;DHT22;39886;47.984;-1.586;2023-03-29T06:54:33;20.80;59.50
53978;DHT22;39886;47.984;-1.586;2023-03-29T06:57:00;20.80;59.50
53978;DHT22;39886;47.984;-1.586;2023-03-29T06:59:26;20.80;59.40
53978;DHT22;39886;47.984;-1.586;2023-03-29T07:01:52;20.90;59.20
53978;DHT22;39886;47.984;-1.586;2023-03-29T07:04:21;20.90;59.50
53978;DHT22;39886;47.984;-1.586;2023-03-29T07:06:49;21.00;59.60
53978;DHT22;39886;47.984;-1.586;2023-03-29T07:09:27;21.00;59.40
53978;DHT22;39886;47.984;-1.586;2023-03-29T07:11:57;21.10;59.70
53978;DHT22;39886;47.984;-1.586;2023-03-29T07:14:25;21.10;59.30
53978;DHT22;39886;47.984;-1.586;2023-03-29T07:16:54;21.20;59.30
53978;DHT22;39886;47.984;-1.586;2023-03-29T07:19:20;21.20;59.20
53978;DHT22;39886;47.984;-1.586;2023-03-29T07:21:49;21.30;59.60
53978;DHT22;39886;47.984;-1.586;2023-03-29T07:24:14;21.30;59.20
53978;DHT22;39886;47.984;-1.586;2023-03-29T07:26:41;21.40;60.20
53978;DHT22;39886;47.984;-1.586;2023-03-29T07:29:07;21.40;59.60
53978;DHT22;39886;47.984;-1.586;2023-03-29T07:31:35;21.40;59.20
53978;DHT22;39886;47.984;-1.586;2023-03-29T07:34:03;21.40;59.10
53978;DHT22;39886;47.984;-1.586;2023-03-29T07:36:30;21.50;59.20
53978;DHT22;39886;47.984;-1.586;2023-03-29T07:38:58;21.50;59.40
53978;DHT22;39886;47.984;-1.586;2023-03-29T07:41:26;21.60;59.10
53978;DHT22;39886;47.984;-1.586;2023-03-29T07:43:52;21.60;59.30
53978;DHT22;39886;47.984;-1.586;2023-03-29T07:46:18;21.50;59.50
53978;DHT22;39886;47.984;-1.586;2023-03-29T07:48:44;21.40;59.80
53978;DHT22;39886;47.984;-1.586;2023-03-29T07:51:10;21.30;60.40
53978;DHT22;39886;47.984;-1.586;2023-03-29T07:53:36;21.20;60.60
53978;DHT22;39886;47.984;-1.586;2023-03-29T07:56:03;21.20;61.00
53978;DHT22;39886;47.984;-1.586;2023-03-29T07:58:29;21.10;60.90
53978;DHT22;39886;47.984;-1.586;2023-03-29T08:00:54;21.10;60.90
53978;DHT22;39886;47.984;-1.586;2023-03-29T08:03:20;21.00;61.20
53978;DHT22;39886;47.984;-1.586;2023-03-29T08:05:47;21.00;61.30
53978;DHT22;39886;47.984;-1.586;2023-03-29T08:08:13;21.00;61.40
53978;DHT22;39886;47.984;-1.586;2023-03-29T08:10:38;20.90;61.40
53978;DHT22;39886;47.984;-1.586;2023-03-29T08:13:05;20.90;61.50
53978;DHT22;39886;47.984;-1.586;2023-03-29T08:15:33;20.80;61.50
53978;DHT22;39886;47.984;-1.586;2023-03-29T08:17:59;20.80;61.60
53978;DHT22;39886;47.984;-1.586;2023-03-29T08:20:25;20.80;61.70
53978;DHT22;39886;47.984;-1.586;2023-03-29T08:22:53;20.80;61.90
53978;DHT22;39886;47.984;-1.586;2023-03-29T08:25:19;20.80;61.90
53978;DHT22;39886;47.984;-1.586;2023-03-29T08:27:45;20.80;61.80
53978;DHT22;39886;47.984;-1.586;2023-03-29T08:30:10;20.80;61.70
53978;DHT22;39886;47.984;-1.586;2023-03-29T08:32:36;20.70;61.80
53978;DHT22;39886;47.984;-1.586;2023-03-29T08:35:04;20.70;62.50
53978;DHT22;39886;47.984;-1.586;2023-03-29T08:37:31;20.70;62.00
53978;DHT22;39886;47.984;-1.586;2023-03-29T08:39:57;20.70;62.00
53978;DHT22;39886;47.984;-1.586;2023-03-29T08:42:47;20.70;61.80
53978;DHT22;39886;47.984;-1.586;2023-03-29T08:50:39;20.60;62.10
53978;DHT22;39886;47.984;-1.586;2023-03-29T08:53:16;20.60;62.20
53978;DHT22;39886;47.984;-1.586;2023-03-29T08:55:45;20.60;62.10
53978;DHT22;39886;47.984;-1.586;2023-03-29T08:58:18;20.60;62.20
53978;DHT22;39886;47.984;-1.586;2023-03-29T09:00:49;20.60;62.20
53978;DHT22;39886;47.984;-1.586;2023-03-29T09:03:24;20.60;62.20
53978;DHT22;39886;47.984;-1.586;2023-03-29T09:06:11;20.60;62.40
53978;DHT22;39886;47.984;-1.586;2023-03-29T09:08:45;20.60;62.50
53978;DHT22;39886;47.984;-1.586;2023-03-29T09:25:16;20.60;62.50
53978;DHT22;39886;47.984;-1.586;2023-03-29T09:28:04;20.60;62.50
53978;DHT22;39886;47.984;-1.586;2023-03-29T09:33:33;20.60;62.50
53978;DHT22;39886;47.984;-1.586;2023-03-29T09:36:27;20.60;62.50
53978;DHT22;39886;47.984;-1.586;2023-03-29T09:38:55;20.60;62.40
53978;DHT22;39886;47.984;-1.586;2023-03-29T09:41:29;20.70;62.40
53978;DHT22;39886;47.984;-1.586;2023-03-29T09:44:01;20.60;62.40
53978;DHT22;39886;47.984;-1.586;2023-03-29T09:46:38;20.70;62.50
53978;DHT22;39886;47.984;-1.586;2023-03-29T09:49:08;20.70;62.60
53978;DHT22;39886;47.984;-1.586;2023-03-29T09:51:37;20.70;62.50
53978;DHT22;39886;47.984;-1.586;2023-03-29T09:54:03;20.70;62.50
53978;DHT22;39886;47.984;-1.586;2023-03-29T09:56:29;20.70;62.40
53978;DHT22;39886;47.984;-1.586;2023-03-29T09:58:55;20.70;62.50
53978;DHT22;39886;47.984;-1.586;2023-03-29T10:01:20;20.70;62.70
53978;DHT22;39886;47.984;-1.586;2023-03-29T10:03:48;20.70;62.80
53978;DHT22;39886;47.984;-1.586;2023-03-29T10:06:15;20.70;62.70
53978;DHT22;39886;47.984;-1.586;2023-03-29T10:08:49;20.70;62.30
53978;DHT22;39886;47.984;-1.586;2023-03-29T10:11:28;20.70;62.40
53978;DHT22;39886;47.984;-1.586;2023-03-29T10:14:02;20.70;62.40
53978;DHT22;39886;47.984;-1.586;2023-03-29T10:16:39;20.70;62.30
53978;DHT22;39886;47.984;-1.586;2023-03-29T10:19:29;20.70;62.50
53978;DHT22;39886;47.984;-1.586;2023-03-29T10:21:59;20.80;62.40
53978;DHT22;39886;47.984;-1.586;2023-03-29T10:24:26;20.70;62.50
53978;DHT22;39886;47.984;-1.586;2023-03-29T10:26:58;20.70;62.50
53978;DHT22;39886;47.984;-1.586;2023-03-29T10:29:26;20.70;62.50
53978;DHT22;39886;47.984;-1.586;2023-03-29T10:31:59;20.80;62.50
53978;DHT22;39886;47.984;-1.586;2023-03-29T10:34:25;20.80;62.40
53978;DHT22;39886;47.984;-1.586;2023-03-29T10:36:59;20.80;63.00
53978;DHT22;39886;47.984;-1.586;2023-03-29T10:39:28;20.80;62.30
53978;DHT22;39886;47.984;-1.586;2023-03-29T10:41:58;20.80;62.20
53978;DHT22;39886;47.984;-1.586;2023-03-29T10:44:29;20.80;62.20
53978;DHT22;39886;47.984;-1.586;2023-03-29T10:46:55;20.80;62.20
53978;DHT22;39886;47.984;-1.586;2023-03-29T10:49:43;20.80;62.20
53978;DHT22;39886;47.984;-1.586;2023-03-29T10:52:12;20.80;62.20
53978;DHT22;39886;47.984;-1.586;2023-03-29T10:54:38;20.80;62.10
53978;DHT22;39886;47.984;-1.586;2023-03-29T10:57:06;20.80;62.10
53978;DHT22;39886;47.984;-1.586;2023-03-29T11:00:03;20.80;62.10
53978;DHT22;39886;47.984;-1.586;2023-03-29T11:13:49;20.90;62.00
53978;DHT22;39886;47.984;-1.586;2023-03-29T11:46:19;21.10;61.30
53978;DHT22;39886;47.984;-1.586;2023-03-29T11:51:41;21.10;61.20
53978;DHT22;39886;47.984;-1.586;2023-03-29T11:54:21;21.20;61.20
53978;DHT22;39886;47.984;-1.586;2023-03-29T11:57:02;21.20;61.20
53978;DHT22;39886;47.984;-1.586;2023-03-29T12:00:00;21.30;61.20
53978;DHT22;39886;47.984;-1.586;2023-03-29T12:02:44;21.30;61.00
53978;DHT22;39886;47.984;-1.586;2023-03-29T12:07:52;21.40;61.00
53978;DHT22;39886;47.984;-1.586;2023-03-29T12:10:22;21.40;60.80
53978;DHT22;39886;47.984;-1.586;2023-03-29T12:13:06;21.50;60.90
53978;DHT22;39886;47.984;-1.586;2023-03-29T12:15:42;21.50;60.90
53978;DHT22;39886;47.984;-1.586;2023-03-29T12:18:23;21.50;60.80
53978;DHT22;39886;47.984;-1.586;2023-03-29T12:21:00;21.50;60.70
53978;DHT22;39886;47.984;-1.586;2023-03-29T12:23:31;21.60;60.70
53978;DHT22;39886;47.984;-1.586;2023-03-29T12:26:48;21.70;60.50
53978;DHT22;39886;47.984;-1.586;2023-03-29T12:40:08;21.90;60.50
53978;DHT22;39886;47.984;-1.586;2023-03-29T12:42:46;21.90;60.30
53978;DHT22;39886;47.984;-1.586;2023-03-29T12:45:20;22.00;60.40
53978;DHT22;39886;47.984;-1.586;2023-03-29T12:47:51;22.00;60.40
53978;DHT22;39886;47.984;-1.586;2023-03-29T12:50:33;22.00;60.40
53978;DHT22;39886;47.984;-1.586;2023-03-29T12:53:05;22.00;60.40
53978;DHT22;39886;47.984;-1.586;2023-03-29T12:55:47;22.10;60.30
53978;DHT22;39886;47.984;-1.586;2023-03-29T13:06:34;22.20;60.00
53978;DHT22;39886;47.984;-1.586;2023-03-29T13:09:22;22.20;59.90
53978;DHT22;39886;47.984;-1.586;2023-03-29T13:11:55;22.30;59.80
53978;DHT22;39886;47.984;-1.586;2023-03-29T13:14:23;22.30;59.40
53978;DHT22;39886;47.984;-1.586;2023-03-29T13:16:50;22.30;59.80
53978;DHT22;39886;47.984;-1.586;2023-03-29T13:19:33;22.40;59.50
53978;DHT22;39886;47.984;-1.586;2023-03-29T13:22:40;22.40;59.40
53978;DHT22;39886;47.984;-1.586;2023-03-29T13:31:04;22.50;58.90
53978;DHT22;39886;47.984;-1.586;2023-03-29T13:34:11;22.50;58.90
53978;DHT22;39886;47.984;-1.586;2023-03-29T13:39:28;22.60;58.70
53978;DHT22;39886;47.984;-1.586;2023-03-29T13:42:19;22.60;58.00
53978;DHT22;39886;47.984;-1.586;2023-03-29T13:44:46;22.70;58.70
53978;DHT22;39886;47.984;-1.586;2023-03-29T13:50:02;22.80;58.60
53978;DHT22;39886;47.984;-1.586;2023-03-29T13:52:33;22.80;58.40
53978;DHT22;39886;47.984;-1.586;2023-03-29T13:55:06;22.80;58.30
53978;DHT22;39886;47.984;-1.586;2023-03-29T13:57:58;22.80;58.10
53978;DHT22;39886;47.984;-1.586;2023-03-29T14:00:32;22.90;58.20
53978;DHT22;39886;47.984;-1.586;2023-03-29T14:03:05;22.90;58.00
53978;DHT22;39886;47.984;-1.586;2023-03-29T14:05:35;23.00;58.00
53978;DHT22;39886;47.984;-1.586;2023-03-29T14:08:13;23.00;57.90
53978;DHT22;39886;47.984;-1.586;2023-03-29T14:10:43;23.00;58.00
53978;DHT22;39886;47.984;-1.586;2023-03-29T14:13:15;23.00;57.90
53978;DHT22;39886;47.984;-1.586;2023-03-29T14:16:02;23.10;57.70
53978;DHT22;39886;47.984;-1.586;2023-03-29T14:18:39;23.10;57.80
53978;DHT22;39886;47.984;-1.586;2023-03-29T14:21:06;23.10;57.40
53978;DHT22;39886;47.984;-1.586;2023-03-29T14:23:35;23.20;57.30
53978;DHT22;39886;47.984;-1.586;2023-03-29T14:26:15;23.20;56.90
53978;DHT22;39886;47.984;-1.586;2023-03-29T14:29:00;23.20;57.00
53978;DHT22;39886;47.984;-1.586;2023-03-29T14:31:33;23.30;56.60
53978;DHT22;39886;47.984;-1.586;2023-03-29T14:34:01;23.30;56.40
53978;DHT22;39886;47.984;-1.586;2023-03-29T14:36:30;23.30;56.50
53978;DHT22;39886;47.984;-1.586;2023-03-29T14:39:06;23.30;56.20
53978;DHT22;39886;47.984;-1.586;2023-03-29T14:41:36;23.30;56.00
53978;DHT22;39886;47.984;-1.586;2023-03-29T14:44:04;23.30;56.00
53978;DHT22;39886;47.984;-1.586;2023-03-29T14:46:31;23.40;56.00
53978;DHT22;39886;47.984;-1.586;2023-03-29T14:48:58;23.40;55.60
53978;DHT22;39886;47.984;-1.586;2023-03-29T14:51:25;23.50;55.60
53978;DHT22;39886;47.984;-1.586;2023-03-29T14:53:59;23.50;55.30
53978;DHT22;39886;47.984;-1.586;2023-03-29T14:56:28;23.50;55.60
53978;DHT22;39886;47.984;-1.586;2023-03-29T14:58:57;23.60;55.50
53978;DHT22;39886;47.984;-1.586;2023-03-29T15:01:24;23.60;55.10
53978;DHT22;39886;47.984;-1.586;2023-03-29T15:03:55;23.60;55.50
53978;DHT22;39886;47.984;-1.586;2023-03-29T15:06:24;23.60;55.60
53978;DHT22;39886;47.984;-1.586;2023-03-29T15:08:51;23.60;55.20
53978;DHT22;39886;47.984;-1.586;2023-03-29T15:11:23;23.70;55.30
53978;DHT22;39886;47.984;-1.586;2023-03-29T15:14:05;23.80;55.10
53978;DHT22;39886;47.984;-1.586;2023-03-29T15:16:36;23.90;55.00
53978;DHT22;39886;47.984;-1.586;2023-03-29T15:19:03;23.80;54.80
53978;DHT22;39886;47.984;-1.586;2023-03-29T15:21:33;23.80;54.40
53978;DHT22;39886;47.984;-1.586;2023-03-29T15:24:02;23.80;54.30
53978;DHT22;39886;47.984;-1.586;2023-03-29T15:26:34;23.80;54.00
53978;DHT22;39886;47.984;-1.586;2023-03-29T15:31:37;23.80;53.90
53978;DHT22;39886;47.984;-1.586;2023-03-29T15:34:06;23.70;54.00
53978;DHT22;39886;47.984;-1.586;2023-03-29T15:36:33;23.70;54.10
53978;DHT22;39886;47.984;-1.586;2023-03-29T15:38:59;23.60;54.60
53978;DHT22;39886;47.984;-1.586;2023-03-29T15:41:25;23.60;53.60
53978;DHT22;39886;47.984;-1.586;2023-03-29T15:43:53;23.60;53.90
53978;DHT22;39886;47.984;-1.586;2023-03-29T15:46:20;23.60;53.80
53978;DHT22;39886;47.984;-1.586;2023-03-29T15:48:46;23.50;54.00
53978;DHT22;39886;47.984;-1.586;2023-03-29T15:51:12;23.50;54.20
53978;DHT22;39886;47.984;-1.586;2023-03-29T15:53:38;23.50;53.80
53978;DHT22;39886;47.984;-1.586;2023-03-29T15:56:06;23.40;53.90
53978;DHT22;39886;47.984;-1.586;2023-03-29T15:58:35;23.40;53.30
53978;DHT22;39886;47.984;-1.586;2023-03-29T16:01:12;23.40;53.40
53978;DHT22;39886;47.984;-1.586;2023-03-29T16:03:43;23.40;53.00
53978;DHT22;39886;47.984;-1.586;2023-03-29T16:06:12;23.40;53.20
53978;DHT22;39886;47.984;-1.586;2023-03-29T16:08:38;23.30;53.30
53978;DHT22;39886;47.984;-1.586;2023-03-29T16:11:05;23.30;53.00
53978;DHT22;39886;47.984;-1.586;2023-03-29T16:13:31;23.30;53.40
53978;DHT22;39886;47.984;-1.586;2023-03-29T16:15:57;23.30;54.30
53978;DHT22;39886;47.984;-1.586;2023-03-29T16:18:23;23.30;53.90
53978;DHT22;39886;47.984;-1.586;2023-03-29T16:20:48;23.20;54.30
53978;DHT22;39886;47.984;-1.586;2023-03-29T16:23:14;23.20;54.60
53978;DHT22;39886;47.984;-1.586;2023-03-29T16:25:40;23.20;54.70
53978;DHT22;39886;47.984;-1.586;2023-03-29T16:28:07;23.20;54.80
53978;DHT22;39886;47.984;-1.586;2023-03-29T16:30:35;23.20;55.00
53978;DHT22;39886;47.984;-1.586;2023-03-29T16:33:02;23.10;55.10
53978;DHT22;39886;47.984;-1.586;2023-03-29T16:35:34;23.10;55.00
53978;DHT22;39886;47.984;-1.586;2023-03-29T16:38:00;23.10;55.10
53978;DHT22;39886;47.984;-1.586;2023-03-29T16:40:26;23.10;55.30
53978;DHT22;39886;47.984;-1.586;2023-03-29T16:42:52;23.00;55.60
53978;DHT22;39886;47.984;-1.586;2023-03-29T16:45:18;23.00;55.80
53978;DHT22;39886;47.984;-1.586;2023-03-29T16:47:44;23.00;55.90
53978;DHT22;39886;47.984;-1.586;2023-03-29T16:50:12;23.00;55.80
53978;DHT22;39886;47.984;-1.586;2023-03-29T16:52:39;23.00;55.80
53978;DHT22;39886;47.984;-1.586;2023-03-29T16:55:05;23.00;55.80
53978;DHT22;39886;47.984;-1.586;2023-03-29T16:57:31;23.00;56.00
53978;DHT22;39886;47.984;-1.586;2023-03-29T16:59:57;22.90;56.30
53978;DHT22;39886;47.984;-1.586;2023-03-29T17:02:23;22.90;56.30
53978;DHT22;39886;47.984;-1.586;2023-03-29T17:04:49;22.80;56.80
53978;DHT22;39886;47.984;-1.586;2023-03-29T17:07:15;22.80;57.00
53978;DHT22;39886;47.984;-1.586;2023-03-29T17:09:41;22.80;57.20
53978;DHT22;39886;47.984;-1.586;2023-03-29T17:12:07;22.70;57.20
53978;DHT22;39886;47.984;-1.586;2023-03-29T17:14:33;22.70;57.00
53978;DHT22;39886;47.984;-1.586;2023-03-29T17:16:59;22.70;56.80
53978;DHT22;39886;47.984;-1.586;2023-03-29T17:19:25;22.70;56.90
53978;DHT22;39886;47.984;-1.586;2023-03-29T17:21:51;22.70;56.80
53978;DHT22;39886;47.984;-1.586;2023-03-29T17:24:16;22.70;56.70
53978;DHT22;39886;47.984;-1.586;2023-03-29T17:26:42;22.60;56.70